Main page
METAR-TAF:

METAR-TAF

Airports :

Trieste – Friuli Venezia Giulia Airport

Trieste / Ronchi dei Legionari, Italy

latitude: 45-49N, longitude: 013-29E, elevation: 12 m

Current weather observation

The report was made 18 minutes ago, at 03:20 UTC
Wind 6 kt from the North
Temperature 19°C
Humidity 78%
Pressure 1014 hPa
Visibility 10 km or more

METAR: LIPQ 170320Z AUTO 36006KT 9999 NCD 19/15 Q1014

Time: 05:38 (03:38 UTC)

Forecast

The report was made 4 hours and 38 minutes ago, at 23:00 UTC
Forecast valid from 17 at 00 UTC to 17 at 24 UTC
Wind 10 kt from the East/Northeast
Visibility 10 km or more
Scattered clouds at a height of 3000 ft
Becoming
from 17 at 10 UTC to 17 at 12 UTC
Wind 8 kt from the Southwest
Becoming
from 17 at 16 UTC to 17 at 18 UTC
Wind 5 kt from variable directions

TAF: LIPQ 162300Z 1700/1724 07010KT 9999 SCT030 BECMG 1710/1712 23008KT BECMG 1716/1718 VRB05KT

Weather observations and forecasts of more than 4000 airports (METAR and TAF reports).

The available stations are represented by yellow and red dots on the map.

Hover mouse over dot to see the name of the station.

Then click to see weather observations and forecasts.

To change the map : click on the green buttons with a black cross to zoom in, on the green button with a dash to zoom out, or on the green arrows for adjacent maps.


METAR-TAF: